createdAt,value
2018-07-04T00:02:27.931Z,41.5
2018-07-04T00:07:28.030Z,41.6
2018-07-04T00:12:28.193Z,41.5
2018-07-04T00:17:28.625Z,41.5
2018-07-04T00:22:28.240Z,41.5
2018-07-04T00:27:27.803Z,41.4
2018-07-04T00:32:27.991Z,41.3
2018-07-04T00:37:27.637Z,41.2
2018-07-04T00:42:27.768Z,41.3
2018-07-04T00:47:28.173Z,41.4
2018-07-04T00:52:27.600Z,41.5
2018-07-04T00:57:28.204Z,41.4
2018-07-04T01:02:28.005Z,41.4
2018-07-04T01:07:27.401Z,41.4
2018-07-04T01:12:27.582Z,41.2
2018-07-04T01:17:28.253Z,41.3
2018-07-04T01:22:28.486Z,41.1
2018-07-04T01:27:27.932Z,41.3
2018-07-04T01:32:28.408Z,41.3
2018-07-04T01:37:28.649Z,41.4
2018-07-04T01:42:28.190Z,41.4
2018-07-04T01:47:28.244Z,41.3
2018-07-04T01:52:27.016Z,41.3
2018-07-04T01:57:28.560Z,41.2
2018-07-04T02:02:28.128Z,41.3
2018-07-04T02:07:27.573Z,41.3
2018-07-04T02:12:28.417Z,41.2
2018-07-04T02:17:28.994Z,41.4
2018-07-04T02:22:28.013Z,41.3
2018-07-04T02:27:27.832Z,41.3
2018-07-04T02:32:27.717Z,41.3
2018-07-04T02:37:28.265Z,41.2
2018-07-04T02:42:27.878Z,41.2
2018-07-04T02:47:29.413Z,41.3
2018-07-04T02:52:28.157Z,41.1
2018-07-04T02:57:27.944Z,41.3
2018-07-04T03:02:28.292Z,41.3
2018-07-04T03:07:28.489Z,41.3
2018-07-04T03:12:27.489Z,41.3
2018-07-04T03:17:28.084Z,41.3
2018-07-04T03:22:28.037Z,41.3
2018-07-04T03:27:28.334Z,41.2
2018-07-04T03:32:27.954Z,41.2
2018-07-04T03:37:28.500Z,41.3
2018-07-04T03:42:28.675Z,41.1
2018-07-04T03:47:29.044Z,41.3
2018-07-04T03:52:27.598Z,41.2
2018-07-04T03:57:28.041Z,41.1
2018-07-04T04:02:28.189Z,41.2
2018-07-04T04:07:28.195Z,41.2
2018-07-04T04:12:28.854Z,41.1
2018-07-04T04:17:29.052Z,41.0
2018-07-04T04:22:28.138Z,40.9
2018-07-04T04:27:27.973Z,40.8
2018-07-04T04:32:28.249Z,40.6
2018-07-04T04:37:28.001Z,40.6
2018-07-04T04:42:28.708Z,40.5
2018-07-04T04:47:28.342Z,40.7
2018-07-04T04:52:27.975Z,40.7
2018-07-04T04:57:28.122Z,40.8
2018-07-04T05:02:28.288Z,40.8
2018-07-04T05:07:29.327Z,40.9
2018-07-04T05:12:29.176Z,40.9
2018-07-04T05:17:28.470Z,41.0
2018-07-04T05:22:29.578Z,40.9
2018-07-04T05:27:28.168Z,41.0
2018-07-04T05:32:29.110Z,41.0
2018-07-04T05:37:28.285Z,41.3
2018-07-04T05:42:28.364Z,41.2
2018-07-04T05:47:29.410Z,41.2
2018-07-04T05:52:27.511Z,41.3
2018-07-04T05:57:28.052Z,41.1
2018-07-04T06:02:30.195Z,40.8
2018-07-04T06:07:28.345Z,40.8
2018-07-04T06:12:28.535Z,40.6
2018-07-04T06:17:29.092Z,40.7
2018-07-04T06:22:28.445Z,40.8
2018-07-04T06:27:28.216Z,41.0
2018-07-04T06:32:29.032Z,41.2
2018-07-04T06:37:28.280Z,41.5
2018-07-04T06:42:27.641Z,41.7
2018-07-04T06:47:28.867Z,41.8
2018-07-04T06:52:28.539Z,41.9
2018-07-04T06:57:29.076Z,41.8
2018-07-04T07:02:27.892Z,41.8
2018-07-04T07:07:28.927Z,41.8
2018-07-04T07:12:28.176Z,41.8
2018-07-04T07:17:28.924Z,42.0
2018-07-04T07:22:28.661Z,41.8
2018-07-04T07:27:27.716Z,42.3
2018-07-04T07:32:27.815Z,42.2
2018-07-04T07:37:28.834Z,42.1
2018-07-04T07:42:28.965Z,42.0
2018-07-04T07:47:29.441Z,42.1
2018-07-04T07:52:28.715Z,42.1
2018-07-04T07:57:28.730Z,42.6
2018-07-04T08:02:27.923Z,42.3
2018-07-04T08:07:28.986Z,42.4
2018-07-04T08:12:28.807Z,42.4
2018-07-04T08:17:29.113Z,43.1
2018-07-04T08:22:28.635Z,43.1
2018-07-04T08:27:28.965Z,43.1
2018-07-04T08:32:29.036Z,43.4
2018-07-04T08:37:28.471Z,43.5
2018-07-04T08:42:28.238Z,43.6
2018-07-04T08:47:28.869Z,43.6
2018-07-04T08:52:28.765Z,43.9
2018-07-04T08:57:27.988Z,44.5
2018-07-04T09:02:29.057Z,44.8
2018-07-04T09:07:28.432Z,44.8
2018-07-04T09:12:28.853Z,45.5
2018-07-04T09:17:28.195Z,45.9
2018-07-04T09:22:28.635Z,45.6
2018-07-04T09:27:28.694Z,45.9
2018-07-04T09:32:28.611Z,45.4
2018-07-04T09:37:28.058Z,45.4
2018-07-04T09:42:28.214Z,44.9
2018-07-04T09:47:28.787Z,45.3
2018-07-04T09:52:28.434Z,45.3
2018-07-04T09:57:28.973Z,45.2
2018-07-04T10:02:28.264Z,44.7
2018-07-04T10:07:28.457Z,44.7
2018-07-04T10:12:27.625Z,44.4
2018-07-04T10:17:28.397Z,44.2
2018-07-04T10:22:27.612Z,44.1
2018-07-04T10:27:29.231Z,43.7
2018-07-04T10:32:28.869Z,43.8
2018-07-04T10:37:28.371Z,44.0
2018-07-04T10:42:28.659Z,43.7
2018-07-04T10:47:27.918Z,43.4
2018-07-04T10:52:28.574Z,43.5
2018-07-04T10:57:27.562Z,43.0
2018-07-04T11:02:28.329Z,43.5
2018-07-04T11:07:28.717Z,43.0
2018-07-04T11:12:28.846Z,43.4
2018-07-04T11:17:28.336Z,43.5
2018-07-04T11:22:28.139Z,43.6
2018-07-04T11:27:27.793Z,43.8
2018-07-04T11:32:28.796Z,44.6
2018-07-04T11:37:28.619Z,44.4
2018-07-04T11:42:28.393Z,44.7
2018-07-04T11:47:27.939Z,44.8
2018-07-04T11:52:28.878Z,44.8
2018-07-04T11:57:28.706Z,45.3
2018-07-04T12:02:28.241Z,45.1
2018-07-04T12:07:28.917Z,45.3
2018-07-04T12:12:28.412Z,45.1
2018-07-04T12:17:28.206Z,45.3
2018-07-04T12:22:28.558Z,45.6
2018-07-04T12:27:28.537Z,45.2
2018-07-04T12:32:28.688Z,45.6
2018-07-04T12:37:29.144Z,45.1
2018-07-04T12:42:28.836Z,45.5
2018-07-04T12:47:28.745Z,45.4
2018-07-04T12:52:28.072Z,45.3
2018-07-04T12:57:30.525Z,45.2
2018-07-04T13:02:28.617Z,45.1
2018-07-04T13:07:30.789Z,45.5
2018-07-04T13:12:28.640Z,45.9
2018-07-04T13:17:28.643Z,46.3
2018-07-04T13:22:28.179Z,46.5
2018-07-04T13:27:28.344Z,46.6
2018-07-04T13:32:29.591Z,47.3
2018-07-04T13:37:28.519Z,47.5
2018-07-04T13:42:28.867Z,47.4
2018-07-04T13:47:28.565Z,47.7
2018-07-04T13:52:28.785Z,47.5
2018-07-04T13:57:28.135Z,47.9
2018-07-04T14:02:27.643Z,47.8
2018-07-04T14:07:28.864Z,47.8
2018-07-04T14:12:28.360Z,47.9
2018-07-04T14:17:28.463Z,47.0
2018-07-04T14:22:27.885Z,47.2
2018-07-04T14:27:28.642Z,46.5
2018-07-04T14:32:28.800Z,46.2
2018-07-04T14:37:28.093Z,46.1
2018-07-04T14:42:28.851Z,45.4
2018-07-04T14:47:28.712Z,45.4
2018-07-04T14:52:29.446Z,45.6
2018-07-04T14:57:28.643Z,44.4
2018-07-04T15:02:28.002Z,44.4
2018-07-04T15:07:29.162Z,44.1
2018-07-04T15:12:27.668Z,41.0
2018-07-04T15:17:28.913Z,38.1
2018-07-04T15:22:27.888Z,40.8
2018-07-04T15:27:28.677Z,37.9
2018-07-04T15:32:28.027Z,35.7
2018-07-04T15:37:28.465Z,34.6
2018-07-04T15:42:27.514Z,34.4
2018-07-04T15:47:28.518Z,33.9
2018-07-04T15:52:28.414Z,34.1
2018-07-04T15:57:28.702Z,34.5
2018-07-04T16:02:27.625Z,37.4
2018-07-04T16:07:28.457Z,36.8
2018-07-04T16:12:27.915Z,38.6
2018-07-04T16:17:28.315Z,39.4
2018-07-04T16:22:27.860Z,36.2
2018-07-04T16:27:27.923Z,35.7
2018-07-04T16:32:28.028Z,35.7
2018-07-04T16:37:28.634Z,35.8
2018-07-04T16:42:28.340Z,35.9
2018-07-04T16:47:28.400Z,35.8
2018-07-04T16:52:27.961Z,35.3
2018-07-04T16:57:29.193Z,36.6
2018-07-04T17:02:28.524Z,40.2
2018-07-04T17:07:28.944Z,42.4
2018-07-04T17:12:28.104Z,43.2
2018-07-04T17:17:28.724Z,43.9
2018-07-04T17:22:27.958Z,43.9
2018-07-04T17:27:27.902Z,44.2
2018-07-04T17:32:27.755Z,40.4
2018-07-04T17:37:28.372Z,36.8
2018-07-04T17:42:28.809Z,38.5
2018-07-04T17:47:28.270Z,38.5
2018-07-04T17:52:27.560Z,39.4
2018-07-04T17:57:28.607Z,43.4
2018-07-04T18:02:29.410Z,44.4
2018-07-04T18:07:27.944Z,44.4
2018-07-04T18:12:28.731Z,45.0
2018-07-04T18:17:29.317Z,45.7
2018-07-04T18:22:28.604Z,45.7
2018-07-04T18:27:28.927Z,46.0
2018-07-04T18:32:28.259Z,45.5
2018-07-04T18:37:28.181Z,46.0
2018-07-04T18:42:27.969Z,45.9
2018-07-04T18:47:27.803Z,45.9
2018-07-04T18:52:28.708Z,45.8
2018-07-04T18:57:28.216Z,46.2
2018-07-04T19:02:29.270Z,46.2
2018-07-04T19:07:28.397Z,46.2
2018-07-04T19:12:27.708Z,46.2
2018-07-04T19:17:28.428Z,46.1
2018-07-04T19:22:28.033Z,46.3
2018-07-04T19:27:28.482Z,47.0
2018-07-04T19:32:28.995Z,47.0
2018-07-04T19:37:28.579Z,46.7
2018-07-04T19:42:28.594Z,46.6
2018-07-04T19:47:28.316Z,46.7
2018-07-04T19:52:28.130Z,46.6
2018-07-04T19:57:29.480Z,46.6
2018-07-04T20:02:28.178Z,46.8
2018-07-04T20:07:28.454Z,46.7
2018-07-04T20:12:27.549Z,46.7
2018-07-04T20:17:28.077Z,46.8
2018-07-04T20:22:28.067Z,46.9
2018-07-04T20:27:28.664Z,46.9
2018-07-04T20:32:27.337Z,46.9
2018-07-04T20:37:27.798Z,47.0
2018-07-04T20:42:29.307Z,47.0
2018-07-04T20:47:27.972Z,46.6
2018-07-04T20:52:27.752Z,46.8
2018-07-04T20:57:28.629Z,46.4
2018-07-04T21:02:27.535Z,46.4
2018-07-04T21:07:29.326Z,46.4
2018-07-04T21:12:27.782Z,46.5
2018-07-04T21:17:28.552Z,46.4
2018-07-04T21:22:28.203Z,46.5
2018-07-04T21:27:27.853Z,46.4
2018-07-04T21:32:27.501Z,46.2
2018-07-04T21:37:28.297Z,46.2
2018-07-04T21:42:27.632Z,46.2
2018-07-04T21:47:28.323Z,46.1
2018-07-04T21:52:28.607Z,46.2
2018-07-04T21:57:27.548Z,46.0
2018-07-04T22:02:27.417Z,45.9
2018-07-04T22:07:28.418Z,46.1
2018-07-04T22:12:27.596Z,46.2
2018-07-04T22:23:05.359Z,45.5
2018-07-04T22:28:04.814Z,46.2
2018-07-04T22:33:04.778Z,46.2
2018-07-04T22:38:04.402Z,46.5
2018-07-04T22:43:04.230Z,46.4
2018-07-04T22:48:05.681Z,46.3
2018-07-04T22:53:04.094Z,46.2
2018-07-04T22:58:03.708Z,46.2
2018-07-04T23:03:04.558Z,46.3
2018-07-04T23:08:04.669Z,46.4
2018-07-04T23:12:27.180Z,46.6
2018-07-04T23:17:28.303Z,46.6
2018-07-04T23:22:28.054Z,46.5
2018-07-04T23:27:28.006Z,46.5
2018-07-04T23:32:28.256Z,46.5
2018-07-04T23:37:27.547Z,46.5
2018-07-04T23:42:28.510Z,46.5
2018-07-04T23:47:27.684Z,46.5
2018-07-04T23:52:27.414Z,46.6
2018-07-04T23:57:27.304Z,46.4
